UAE404 OMDB-YMML
Flight info
| Callsign | UAE404 |
|---|---|
| Flight time | N/A |
| Altitude | 29000 |
| Route | ANVIX L223 TARDI DCT GIDAN P570 EMURU DCT LEMAX/N0507F310 DCT VASTU P895 BIKOK DCT KAT DCT ELATI/N0499F330 DCT 07S095E 10S098E DCT SAKAB DCT BIBGA/N0490F350 DCT ATLOD DCT OPALL DCT LST DCT SEEMO DCT ISRED/N0481F370 DCT DONBU DCT MTG Y53 ALAXO |
| Aircraft | B77W/H-SDE1E2E3FGHIJ2J3J4J5M1RWXY/LB1D1 |
Departure
| Time | N/A |
|---|---|
| Airport | Dubai International Airport (OMDB) |
Arrival
| Time | 2026-05-03 22:16 |
|---|---|
| Airport | Melbourne Airport (YMML) |
| Time | Latitude | Longitude | Altitude | Speed | Heading |
|---|---|---|---|---|---|
| 2026-05-03 20:15 | -31.34389 | 126.69882 | 34936 ft | 542 kts | 126° |
| 2026-05-03 20:15 | -31.38534 | 126.77244 | 34938 ft | 543 kts | 126° |
| 2026-05-03 20:16 | -31.42674 | 126.84610 | 34942 ft | 543 kts | 126° |
| 2026-05-03 20:16 | -31.46799 | 126.91965 | 34940 ft | 543 kts | 126° |
| 2026-05-03 20:17 | -31.50949 | 126.99377 | 34941 ft | 543 kts | 126° |
| 2026-05-03 20:17 | -31.55068 | 127.06747 | 34939 ft | 544 kts | 126° |
| 2026-05-03 20:18 | -31.59192 | 127.14142 | 34942 ft | 544 kts | 126° |
| 2026-05-03 20:18 | -31.63316 | 127.21551 | 34945 ft | 543 kts | 126° |
| 2026-05-03 20:19 | -31.67434 | 127.28964 | 34941 ft | 544 kts | 126° |
| 2026-05-03 20:19 | -31.71572 | 127.36426 | 34939 ft | 544 kts | 126° |
| 2026-05-03 20:20 | -31.75682 | 127.43853 | 34942 ft | 545 kts | 126° |
| 2026-05-03 20:20 | -31.79802 | 127.51311 | 34941 ft | 544 kts | 126° |
| 2026-05-03 20:21 | -31.83920 | 127.58781 | 34937 ft | 545 kts | 126° |
| 2026-05-03 20:21 | -31.88029 | 127.66248 | 34932 ft | 546 kts | 125° |
| 2026-05-03 20:22 | -31.92126 | 127.73710 | 34915 ft | 546 kts | 125° |
| 2026-05-03 20:22 | -31.96231 | 127.81200 | 34914 ft | 546 kts | 125° |
| 2026-05-03 20:23 | -32.00341 | 127.88715 | 34914 ft | 547 kts | 125° |
| 2026-05-03 20:23 | -32.04459 | 127.96259 | 34914 ft | 546 kts | 125° |
| 2026-05-03 20:24 | -32.08540 | 128.03748 | 34912 ft | 547 kts | 125° |
| 2026-05-03 20:24 | -32.12638 | 128.11285 | 34913 ft | 546 kts | 125° |
| 2026-05-03 20:25 | -32.16729 | 128.18825 | 34915 ft | 547 kts | 125° |
| 2026-05-03 20:25 | -32.20812 | 128.26363 | 34917 ft | 546 kts | 125° |
| 2026-05-03 20:26 | -32.24896 | 128.33919 | 34919 ft | 546 kts | 125° |
| 2026-05-03 20:26 | -32.28977 | 128.41486 | 34922 ft | 547 kts | 125° |
| 2026-05-03 20:27 | -32.33029 | 128.49013 | 34926 ft | 547 kts | 125° |
| 2026-05-03 20:27 | -32.37090 | 128.56570 | 34931 ft | 547 kts | 125° |
| 2026-05-03 20:28 | -32.41160 | 128.64162 | 34936 ft | 546 kts | 125° |
| 2026-05-03 20:28 | -32.45204 | 128.71718 | 34922 ft | 546 kts | 124° |
| 2026-05-03 20:29 | -32.49255 | 128.79305 | 34923 ft | 546 kts | 124° |
| 2026-05-03 20:29 | -32.53308 | 128.86908 | 34923 ft | 548 kts | 124° |
| 2026-05-03 20:30 | -32.57364 | 128.94536 | 34928 ft | 546 kts | 124° |
| 2026-05-03 20:30 | -32.61402 | 129.02142 | 34928 ft | 546 kts | 124° |
| 2026-05-03 20:31 | -32.65423 | 129.09734 | 34932 ft | 546 kts | 124° |
| 2026-05-03 20:31 | -32.69442 | 129.17335 | 34937 ft | 546 kts | 124° |
| 2026-05-03 20:32 | -32.73453 | 129.24940 | 34942 ft | 544 kts | 124° |
| 2026-05-03 20:32 | -32.77461 | 129.32552 | 34945 ft | 545 kts | 124° |
| 2026-05-03 20:33 | -32.81471 | 129.40186 | 34945 ft | 545 kts | 124° |
| 2026-05-03 20:33 | -32.85481 | 129.47833 | 34947 ft | 546 kts | 124° |
| 2026-05-03 20:34 | -32.89488 | 129.55492 | 34952 ft | 545 kts | 124° |
| 2026-05-03 20:34 | -32.93464 | 129.63106 | 34959 ft | 545 kts | 124° |
| 2026-05-03 20:35 | -32.97468 | 129.70792 | 34943 ft | 544 kts | 123° |
| 2026-05-03 20:35 | -33.01437 | 129.78424 | 34946 ft | 545 kts | 123° |
| 2026-05-03 20:36 | -33.05425 | 129.86108 | 34950 ft | 545 kts | 123° |
| 2026-05-03 20:36 | -33.09388 | 129.93762 | 34952 ft | 545 kts | 123° |
| 2026-05-03 20:37 | -33.13346 | 130.01422 | 34943 ft | 543 kts | 123° |
| 2026-05-03 20:37 | -33.17295 | 130.09080 | 34950 ft | 543 kts | 123° |
| 2026-05-03 20:38 | -33.21252 | 130.16769 | 34947 ft | 545 kts | 123° |
| 2026-05-03 20:38 | -33.25190 | 130.24438 | 34952 ft | 542 kts | 123° |
| 2026-05-03 20:39 | -33.29144 | 130.32155 | 34950 ft | 544 kts | 123° |
| 2026-05-03 20:39 | -33.33072 | 130.39836 | 34950 ft | 543 kts | 123° |
| 2026-05-03 20:40 | -33.37009 | 130.47551 | 34949 ft | 543 kts | 123° |
| 2026-05-03 20:40 | -33.40904 | 130.55200 | 34948 ft | 542 kts | 123° |
| 2026-05-03 20:41 | -33.44803 | 130.62874 | 34948 ft | 542 kts | 123° |
| 2026-05-03 20:41 | -33.48719 | 130.70596 | 34933 ft | 542 kts | 123° |
| 2026-05-03 20:42 | -33.52616 | 130.78299 | 34932 ft | 541 kts | 123° |
| 2026-05-03 20:42 | -33.56520 | 130.86029 | 34933 ft | 543 kts | 123° |
| 2026-05-03 20:43 | -33.60390 | 130.93712 | 34929 ft | 542 kts | 123° |
| 2026-05-03 20:43 | -33.64270 | 131.01428 | 34931 ft | 541 kts | 123° |
| 2026-05-03 20:44 | -33.68168 | 131.09198 | 34932 ft | 541 kts | 122° |
| 2026-05-03 20:44 | -33.72034 | 131.16922 | 34933 ft | 541 kts | 123° |
| 2026-05-03 20:45 | -33.75876 | 131.24612 | 34937 ft | 540 kts | 123° |
| 2026-05-03 20:45 | -33.79738 | 131.32359 | 34937 ft | 542 kts | 123° |
| 2026-05-03 20:46 | -33.83611 | 131.40146 | 34938 ft | 540 kts | 122° |
| 2026-05-03 20:46 | -33.87458 | 131.47899 | 34937 ft | 541 kts | 122° |
| 2026-05-03 20:47 | -33.91396 | 131.55576 | 35250 ft | 547 kts | 125° |
| 2026-05-03 20:47 | -33.93447 | 131.59438 | 36075 ft | 540 kts | 124° |
| 2026-05-03 20:47 | -33.95447 | 131.63208 | 36816 ft | 535 kts | 124° |
| 2026-05-03 20:47 | -33.97438 | 131.66969 | 36923 ft | 537 kts | 124° |
| 2026-05-03 20:48 | -33.99442 | 131.70761 | 36929 ft | 537 kts | 124° |
| 2026-05-03 20:48 | -34.03424 | 131.78317 | 36929 ft | 536 kts | 124° |
| 2026-05-03 20:49 | -34.07406 | 131.85895 | 36931 ft | 536 kts | 123° |
| 2026-05-03 20:49 | -34.11389 | 131.93497 | 36926 ft | 537 kts | 124° |
| 2026-05-03 20:50 | -34.15373 | 132.01117 | 36928 ft | 537 kts | 123° |
| 2026-05-03 20:50 | -34.19327 | 132.08699 | 36928 ft | 536 kts | 124° |
| 2026-05-03 20:51 | -34.23278 | 132.16292 | 36930 ft | 535 kts | 124° |
| 2026-05-03 20:51 | -34.27236 | 132.23912 | 36932 ft | 537 kts | 123° |
| 2026-05-03 20:52 | -34.31186 | 132.31537 | 36929 ft | 536 kts | 123° |
| 2026-05-03 20:52 | -34.35139 | 132.39182 | 36930 ft | 535 kts | 123° |
| 2026-05-03 20:53 | -34.39062 | 132.46785 | 36937 ft | 535 kts | 123° |
| 2026-05-03 20:53 | -34.42990 | 132.54413 | 36936 ft | 537 kts | 123° |
| 2026-05-03 20:54 | -34.46926 | 132.62074 | 36940 ft | 535 kts | 123° |
| 2026-05-03 20:54 | -34.52801 | 132.73543 | 36927 ft | 536 kts | 123° |
| 2026-05-03 20:55 | -34.56728 | 132.81229 | 36924 ft | 536 kts | 123° |
| 2026-05-03 20:55 | -34.60638 | 132.88896 | 36930 ft | 538 kts | 122° |
| 2026-05-03 20:56 | -34.64540 | 132.96567 | 36931 ft | 535 kts | 123° |
| 2026-05-03 20:56 | -34.68420 | 133.04210 | 36937 ft | 534 kts | 123° |
| 2026-05-03 20:57 | -34.72317 | 133.11902 | 36934 ft | 535 kts | 122° |
| 2026-05-03 20:57 | -34.76200 | 133.19586 | 36934 ft | 535 kts | 123° |
| 2026-05-03 20:58 | -34.80077 | 133.27274 | 36939 ft | 536 kts | 122° |
| 2026-05-03 20:58 | -34.83973 | 133.35014 | 36937 ft | 536 kts | 122° |
| 2026-05-03 20:59 | -34.87847 | 133.42729 | 36939 ft | 535 kts | 123° |
| 2026-05-03 20:59 | -34.91712 | 133.50442 | 36940 ft | 536 kts | 122° |
| 2026-05-03 21:00 | -34.94277 | 133.55572 | 36942 ft | 536 kts | 122° |
| 2026-05-03 21:00 | -34.99410 | 133.65858 | 36941 ft | 533 kts | 122° |
| 2026-05-03 21:01 | -35.03269 | 133.73612 | 36931 ft | 534 kts | 122° |
| 2026-05-03 21:01 | -35.07106 | 133.81337 | 36930 ft | 536 kts | 122° |
| 2026-05-03 21:02 | -35.10958 | 133.89111 | 36930 ft | 535 kts | 122° |
| 2026-05-03 21:02 | -35.14779 | 133.96841 | 36928 ft | 534 kts | 122° |
| 2026-05-03 21:03 | -35.18628 | 134.04643 | 36924 ft | 534 kts | 122° |
| 2026-05-03 21:03 | -35.22446 | 134.12401 | 36930 ft | 534 kts | 122° |
| 2026-05-03 21:04 | -35.26252 | 134.20149 | 36931 ft | 535 kts | 122° |
| 2026-05-03 21:04 | -35.30074 | 134.27951 | 36933 ft | 533 kts | 122° |
| 2026-05-03 21:05 | -35.33871 | 134.35716 | 36934 ft | 533 kts | 122° |
| 2026-05-03 21:05 | -35.37677 | 134.43520 | 36934 ft | 533 kts | 122° |
| 2026-05-03 21:06 | -35.41457 | 134.51286 | 36936 ft | 532 kts | 122° |
| 2026-05-03 21:06 | -35.45238 | 134.59071 | 36936 ft | 532 kts | 122° |
| 2026-05-03 21:07 | -35.48999 | 134.66834 | 36929 ft | 533 kts | 121° |
| 2026-05-03 21:07 | -35.52781 | 134.74658 | 36927 ft | 532 kts | 121° |
| 2026-05-03 21:08 | -35.56531 | 134.82433 | 36929 ft | 533 kts | 121° |
| 2026-05-03 21:08 | -35.60300 | 134.90265 | 36928 ft | 533 kts | 121° |
| 2026-05-03 21:09 | -35.64040 | 134.98055 | 36929 ft | 531 kts | 121° |
| 2026-05-03 21:09 | -35.67428 | 135.06172 | 36930 ft | 532 kts | 116° |
| 2026-05-03 21:10 | -35.70658 | 135.14302 | 36933 ft | 532 kts | 116° |
| 2026-05-03 21:10 | -35.73906 | 135.22501 | 36932 ft | 532 kts | 116° |
| 2026-05-03 21:11 | -35.77126 | 135.30649 | 36936 ft | 531 kts | 116° |
| 2026-05-03 21:11 | -35.80347 | 135.38818 | 36934 ft | 532 kts | 116° |
| 2026-05-03 21:12 | -35.83553 | 135.46973 | 36936 ft | 531 kts | 116° |
| 2026-05-03 21:12 | -35.86768 | 135.55171 | 36940 ft | 532 kts | 116° |
| 2026-05-03 21:13 | -35.89957 | 135.63322 | 36940 ft | 531 kts | 116° |
| 2026-05-03 21:13 | -35.93145 | 135.71493 | 36929 ft | 531 kts | 115° |
| 2026-05-03 21:14 | -35.96331 | 135.79680 | 36929 ft | 531 kts | 115° |
| 2026-05-03 21:14 | -35.99515 | 135.87880 | 36934 ft | 532 kts | 115° |
| 2026-05-03 21:15 | -36.02703 | 135.96114 | 36936 ft | 531 kts | 115° |
| 2026-05-03 21:15 | -36.05863 | 136.04294 | 36936 ft | 531 kts | 115° |
| 2026-05-03 21:16 | -36.09031 | 136.12517 | 36935 ft | 530 kts | 115° |
| 2026-05-03 21:16 | -36.12192 | 136.20746 | 36930 ft | 532 kts | 115° |
| 2026-05-03 21:17 | -36.14800 | 136.27550 | 36929 ft | 529 kts | 115° |
| 2026-05-03 21:17 | -36.18477 | 136.37164 | 36932 ft | 531 kts | 115° |
| 2026-05-03 21:18 | -36.21622 | 136.45415 | 36934 ft | 532 kts | 115° |
| 2026-05-03 21:18 | -36.24755 | 136.53653 | 36936 ft | 530 kts | 115° |
| 2026-05-03 21:19 | -36.27882 | 136.61897 | 36936 ft | 530 kts | 115° |
| 2026-05-03 21:19 | -36.31011 | 136.70167 | 36925 ft | 528 kts | 114° |
| 2026-05-03 21:20 | -36.34144 | 136.78471 | 36927 ft | 531 kts | 114° |
| 2026-05-03 21:20 | -36.37234 | 136.86682 | 36927 ft | 530 kts | 114° |
| 2026-05-03 21:21 | -36.40346 | 136.94975 | 36929 ft | 531 kts | 114° |
| 2026-05-03 21:21 | -36.43450 | 137.03265 | 36929 ft | 530 kts | 114° |
| 2026-05-03 21:22 | -36.46522 | 137.11494 | 36931 ft | 530 kts | 114° |
| 2026-05-03 21:22 | -36.49618 | 137.19807 | 36933 ft | 530 kts | 114° |
| 2026-05-03 21:23 | -36.52708 | 137.28128 | 36935 ft | 529 kts | 114° |
| 2026-05-03 21:23 | -36.55770 | 137.36395 | 36938 ft | 529 kts | 114° |
| 2026-05-03 21:24 | -36.58843 | 137.44714 | 36936 ft | 530 kts | 114° |
| 2026-05-03 21:24 | -36.61902 | 137.53017 | 36937 ft | 530 kts | 114° |
| 2026-05-03 21:25 | -36.64958 | 137.61334 | 36938 ft | 530 kts | 114° |
| 2026-05-03 21:25 | -36.68000 | 137.69635 | 36928 ft | 529 kts | 113° |
| 2026-05-03 21:26 | -36.71029 | 137.77922 | 36931 ft | 529 kts | 113° |
| 2026-05-03 21:26 | -36.74058 | 137.86234 | 36930 ft | 528 kts | 113° |
| 2026-05-03 21:27 | -36.77101 | 137.94604 | 36931 ft | 529 kts | 113° |
| 2026-05-03 21:27 | -36.80111 | 138.02910 | 36938 ft | 529 kts | 113° |
| 2026-05-03 21:28 | -36.83126 | 138.11247 | 36926 ft | 529 kts | 113° |
| 2026-05-03 21:28 | -36.86131 | 138.19582 | 36932 ft | 528 kts | 113° |
| 2026-05-03 21:29 | -36.89143 | 138.27959 | 36932 ft | 529 kts | 113° |
| 2026-05-03 21:29 | -36.92140 | 138.36316 | 36932 ft | 528 kts | 113° |
| 2026-05-03 21:30 | -36.95110 | 138.44623 | 36928 ft | 529 kts | 113° |
| 2026-05-03 21:30 | -36.98094 | 138.52989 | 36924 ft | 527 kts | 113° |
| 2026-05-03 21:31 | -37.01065 | 138.61345 | 36923 ft | 529 kts | 113° |
| 2026-05-03 21:31 | -37.04031 | 138.69707 | 36916 ft | 528 kts | 112° |
| 2026-05-03 21:32 | -37.06991 | 138.78076 | 36915 ft | 528 kts | 113° |
| 2026-05-03 21:32 | -37.09958 | 138.86487 | 36919 ft | 528 kts | 113° |
| 2026-05-03 21:33 | -37.12900 | 138.94853 | 36904 ft | 527 kts | 112° |
| 2026-05-03 21:33 | -37.15839 | 139.03232 | 36908 ft | 527 kts | 112° |
| 2026-05-03 21:34 | -37.18783 | 139.11649 | 36908 ft | 526 kts | 113° |
| 2026-05-03 21:34 | -37.21717 | 139.20059 | 36910 ft | 527 kts | 113° |
| 2026-05-03 21:35 | -37.24655 | 139.28507 | 36909 ft | 527 kts | 113° |
| 2026-05-03 21:35 | -37.27573 | 139.36920 | 36913 ft | 528 kts | 113° |
| 2026-05-03 21:36 | -37.30484 | 139.45337 | 36912 ft | 526 kts | 113° |
| 2026-05-03 21:36 | -37.33398 | 139.53787 | 36915 ft | 528 kts | 113° |
| 2026-05-03 21:37 | -37.36306 | 139.62242 | 36915 ft | 527 kts | 113° |
| 2026-05-03 21:37 | -37.39211 | 139.70714 | 36904 ft | 526 kts | 112° |
| 2026-05-03 21:38 | -37.42099 | 139.79160 | 36906 ft | 527 kts | 112° |
| 2026-05-03 21:38 | -37.44988 | 139.87633 | 36905 ft | 527 kts | 112° |
| 2026-05-03 21:39 | -37.47873 | 139.96118 | 36910 ft | 527 kts | 112° |
| 2026-05-03 21:39 | -37.50756 | 140.04620 | 36911 ft | 527 kts | 112° |
| 2026-05-03 21:40 | -37.53623 | 140.13101 | 36913 ft | 527 kts | 112° |
| 2026-05-03 21:40 | -37.56485 | 140.21593 | 36916 ft | 526 kts | 112° |
| 2026-05-03 21:41 | -37.59328 | 140.30052 | 36916 ft | 526 kts | 112° |
| 2026-05-03 21:41 | -37.62182 | 140.38568 | 36919 ft | 527 kts | 112° |
| 2026-05-03 21:42 | -37.65036 | 140.47110 | 36922 ft | 525 kts | 112° |
| 2026-05-03 21:42 | -37.67864 | 140.55598 | 36929 ft | 526 kts | 112° |
| 2026-05-03 21:43 | -37.70699 | 140.64130 | 36934 ft | 525 kts | 112° |
| 2026-05-03 21:43 | -37.73506 | 140.72652 | 36917 ft | 524 kts | 109° |
| 2026-05-03 21:44 | -37.75102 | 140.81573 | 36927 ft | 521 kts | 92° |
| 2026-05-03 21:44 | -37.75616 | 140.90730 | 36925 ft | 519 kts | 91° |
| 2026-05-03 21:45 | -37.76037 | 140.99788 | 36924 ft | 520 kts | 91° |
| 2026-05-03 21:45 | -37.76422 | 141.08887 | 36925 ft | 520 kts | 90° |
| 2026-05-03 21:46 | -37.76785 | 141.18039 | 36929 ft | 520 kts | 90° |
| 2026-05-03 21:46 | -37.77131 | 141.27155 | 36932 ft | 520 kts | 90° |
| 2026-05-03 21:47 | -37.77464 | 141.36261 | 36935 ft | 519 kts | 90° |
| 2026-05-03 21:47 | -37.77787 | 141.45360 | 36942 ft | 519 kts | 90° |
| 2026-05-03 21:48 | -37.78102 | 141.54488 | 36952 ft | 519 kts | 90° |
| 2026-05-03 21:48 | -37.78411 | 141.63654 | 36957 ft | 520 kts | 90° |
| 2026-05-03 21:49 | -37.78708 | 141.72704 | 36945 ft | 519 kts | 90° |
| 2026-05-03 21:49 | -37.79002 | 141.81860 | 36954 ft | 520 kts | 90° |
| 2026-05-03 21:50 | -37.79286 | 141.90951 | 36958 ft | 519 kts | 90° |
| 2026-05-03 21:50 | -37.79565 | 142.00125 | 36960 ft | 520 kts | 90° |
| 2026-05-03 21:51 | -37.79837 | 142.09258 | 36968 ft | 518 kts | 90° |
| 2026-05-03 21:51 | -37.80101 | 142.18375 | 36975 ft | 518 kts | 90° |
| 2026-05-03 21:52 | -37.80357 | 142.27481 | 36981 ft | 520 kts | 90° |
| 2026-05-03 21:52 | -37.80483 | 142.32040 | 36848 ft | 513 kts | 90° |
| 2026-05-03 21:52 | -37.80608 | 142.36534 | 35992 ft | 515 kts | 90° |
| 2026-05-03 21:53 | -37.80734 | 142.41077 | 35112 ft | 516 kts | 90° |
| 2026-05-03 21:53 | -37.80857 | 142.45615 | 34332 ft | 516 kts | 90° |
| 2026-05-03 21:53 | -37.80978 | 142.50105 | 33527 ft | 516 kts | 91° |
| 2026-05-03 21:53 | -37.81100 | 142.54677 | 32710 ft | 516 kts | 91° |
| 2026-05-03 21:54 | -37.81217 | 142.59170 | 31930 ft | 516 kts | 91° |
| 2026-05-03 21:54 | -37.81335 | 142.63747 | 31092 ft | 517 kts | 91° |
| 2026-05-03 21:54 | -37.81450 | 142.68271 | 30437 ft | 514 kts | 91° |
| 2026-05-03 21:54 | -37.81562 | 142.72749 | 29985 ft | 507 kts | 91° |
| 2026-05-03 21:55 | -37.81672 | 142.77225 | 29480 ft | 501 kts | 91° |
| 2026-05-03 21:55 | -37.81779 | 142.81604 | 28951 ft | 495 kts | 91° |
| 2026-05-03 21:55 | -37.81881 | 142.85912 | 28435 ft | 491 kts | 91° |
| 2026-05-03 21:55 | -37.81983 | 142.90239 | 27918 ft | 487 kts | 90° |
| 2026-05-03 21:56 | -37.82082 | 142.94478 | 27397 ft | 483 kts | 90° |
| 2026-05-03 21:56 | -37.82178 | 142.98717 | 26853 ft | 480 kts | 90° |
| 2026-05-03 21:56 | -37.82273 | 143.02927 | 26311 ft | 476 kts | 90° |
| 2026-05-03 21:56 | -37.82365 | 143.07115 | 25764 ft | 473 kts | 90° |
| 2026-05-03 21:57 | -37.82455 | 143.11273 | 25209 ft | 469 kts | 89° |
| 2026-05-03 21:57 | -37.82544 | 143.15401 | 24657 ft | 466 kts | 89° |
| 2026-05-03 21:57 | -37.82629 | 143.19452 | 24105 ft | 463 kts | 89° |
| 2026-05-03 21:57 | -37.82713 | 143.23514 | 23548 ft | 459 kts | 89° |
| 2026-05-03 21:58 | -37.82795 | 143.27534 | 22992 ft | 456 kts | 88° |
| 2026-05-03 21:58 | -37.82875 | 143.31554 | 22434 ft | 452 kts | 88° |
| 2026-05-03 21:58 | -37.82952 | 143.35467 | 21885 ft | 449 kts | 88° |
| 2026-05-03 21:58 | -37.83028 | 143.39406 | 21330 ft | 445 kts | 88° |
| 2026-05-03 21:59 | -37.83103 | 143.43330 | 20771 ft | 441 kts | 88° |
| 2026-05-03 21:59 | -37.83175 | 143.47203 | 20227 ft | 438 kts | 88° |
| 2026-05-03 21:59 | -37.83245 | 143.51041 | 19681 ft | 434 kts | 89° |
| 2026-05-03 21:59 | -37.83313 | 143.54866 | 19125 ft | 431 kts | 89° |
| 2026-05-03 22:00 | -37.83380 | 143.58637 | 18579 ft | 427 kts | 89° |
| 2026-05-03 22:00 | -37.83445 | 143.62390 | 18037 ft | 424 kts | 89° |
| 2026-05-03 22:00 | -37.83508 | 143.66078 | 17498 ft | 421 kts | 89° |
| 2026-05-03 22:00 | -37.83570 | 143.69789 | 16943 ft | 418 kts | 89° |
| 2026-05-03 22:01 | -37.83630 | 143.73454 | 16404 ft | 415 kts | 89° |
| 2026-05-03 22:01 | -37.83688 | 143.77077 | 15857 ft | 412 kts | 89° |
| 2026-05-03 22:01 | -37.83745 | 143.80702 | 15318 ft | 409 kts | 89° |
| 2026-05-03 22:01 | -37.83800 | 143.84250 | 14771 ft | 406 kts | 89° |
| 2026-05-03 22:02 | -37.83854 | 143.87808 | 14240 ft | 402 kts | 89° |
| 2026-05-03 22:02 | -37.83907 | 143.91347 | 13698 ft | 399 kts | 89° |
| 2026-05-03 22:02 | -37.83958 | 143.94852 | 13162 ft | 396 kts | 90° |
| 2026-05-03 22:02 | -37.83899 | 143.98279 | 12656 ft | 392 kts | 83° |
| 2026-05-03 22:03 | -37.83548 | 144.01691 | 12120 ft | 389 kts | 81° |
| 2026-05-03 22:03 | -37.83164 | 144.05064 | 11570 ft | 386 kts | 81° |
| 2026-05-03 22:03 | -37.82782 | 144.08395 | 11029 ft | 384 kts | 82° |
| 2026-05-03 22:03 | -37.82400 | 144.11708 | 10731 ft | 373 kts | 82° |
| 2026-05-03 22:04 | -37.82031 | 144.14897 | 10652 ft | 357 kts | 82° |
| 2026-05-03 22:04 | -37.81677 | 144.17952 | 10561 ft | 342 kts | 82° |
| 2026-05-03 22:04 | -37.81335 | 144.20895 | 10434 ft | 330 kts | 82° |
| 2026-05-03 22:04 | -37.81002 | 144.23747 | 10295 ft | 319 kts | 82° |
| 2026-05-03 22:05 | -37.80682 | 144.26489 | 10164 ft | 309 kts | 82° |
| 2026-05-03 22:05 | -37.80372 | 144.29132 | 9982 ft | 301 kts | 82° |
| 2026-05-03 22:05 | -37.80065 | 144.31743 | 9608 ft | 301 kts | 83° |
| 2026-05-03 22:05 | -37.79756 | 144.34375 | 9260 ft | 300 kts | 83° |
| 2026-05-03 22:06 | -37.79452 | 144.36952 | 8987 ft | 296 kts | 83° |
| 2026-05-03 22:06 | -37.79149 | 144.39522 | 8583 ft | 296 kts | 83° |
| 2026-05-03 22:06 | -37.78849 | 144.42056 | 8314 ft | 290 kts | 83° |
| 2026-05-03 22:06 | -37.78591 | 144.44609 | 7904 ft | 288 kts | 91° |
| 2026-05-03 22:07 | -37.78760 | 144.47111 | 7559 ft | 284 kts | 99° |
| 2026-05-03 22:07 | -37.79065 | 144.49559 | 7237 ft | 280 kts | 100° |
| 2026-05-03 22:07 | -37.79375 | 144.51953 | 6930 ft | 276 kts | 100° |
| 2026-05-03 22:07 | -37.79678 | 144.54334 | 6622 ft | 272 kts | 100° |
| 2026-05-03 22:08 | -37.79975 | 144.56682 | 6320 ft | 269 kts | 100° |
| 2026-05-03 22:08 | -37.80268 | 144.59013 | 6015 ft | 265 kts | 100° |
| 2026-05-03 22:08 | -37.80553 | 144.61287 | 5721 ft | 262 kts | 99° |
| 2026-05-03 22:08 | -37.80839 | 144.63567 | 5437 ft | 258 kts | 99° |
| 2026-05-03 22:09 | -37.81114 | 144.65767 | 5299 ft | 248 kts | 99° |
| 2026-05-03 22:09 | -37.81380 | 144.67896 | 5033 ft | 245 kts | 99° |
| 2026-05-03 22:09 | -37.81647 | 144.70039 | 4743 ft | 243 kts | 99° |
| 2026-05-03 22:10 | -37.82536 | 144.74087 | 4206 ft | 238 kts | 116° |
| 2026-05-03 22:10 | -37.83312 | 144.75954 | 3935 ft | 238 kts | 117° |
| 2026-05-03 22:10 | -37.84047 | 144.77815 | 3659 ft | 236 kts | 106° |
| 2026-05-03 22:10 | -37.84192 | 144.79846 | 3536 ft | 225 kts | 86° |
| 2026-05-03 22:11 | -37.84029 | 144.81744 | 3509 ft | 214 kts | 83° |
| 2026-05-03 22:11 | -37.83825 | 144.83572 | 3420 ft | 202 kts | 82° |
| 2026-05-03 22:11 | -37.83623 | 144.85280 | 3385 ft | 187 kts | 82° |
| 2026-05-03 22:11 | -37.83438 | 144.86836 | 3298 ft | 171 kts | 83° |
| 2026-05-03 22:12 | -37.83247 | 144.88290 | 3181 ft | 165 kts | 73° |
| 2026-05-03 22:12 | -37.82578 | 144.89438 | 3138 ft | 168 kts | 33° |
| 2026-05-03 22:12 | -37.81405 | 144.89711 | 3065 ft | 179 kts | 352° |
| 2026-05-03 22:12 | -37.80302 | 144.88965 | 2863 ft | 181 kts | 323° |
| 2026-05-03 22:13 | -37.79360 | 144.87981 | 2602 ft | 170 kts | 332° |
| 2026-05-03 22:13 | -37.78332 | 144.87295 | 2387 ft | 168 kts | 338° |
| 2026-05-03 22:13 | -37.77302 | 144.86652 | 2167 ft | 162 kts | 338° |
| 2026-05-03 22:13 | -37.76285 | 144.86018 | 1956 ft | 161 kts | 338° |
| 2026-05-03 22:14 | -37.75272 | 144.85420 | 1733 ft | 158 kts | 348° |
| 2026-05-03 22:14 | -37.74219 | 144.85153 | 1527 ft | 154 kts | 355° |
| 2026-05-03 22:14 | -37.73142 | 144.84952 | 1318 ft | 153 kts | 356° |
| 2026-05-03 22:14 | -37.72098 | 144.84757 | 1109 ft | 151 kts | 356° |
| 2026-05-03 22:15 | -37.71059 | 144.84563 | 916 ft | 150 kts | 356° |
| 2026-05-03 22:15 | -37.70034 | 144.84366 | 717 ft | 150 kts | 355° |
| 2026-05-03 22:15 | -37.69000 | 144.84169 | 498 ft | 147 kts | 356° |
| 2026-05-03 22:15 | -37.67996 | 144.83989 | 377 ft | 140 kts | 356° |
| 2026-05-03 22:16 | -37.67152 | 144.83836 | 395 ft | 104 kts | 351° |
| 2026-05-03 22:16 | -37.66582 | 144.83728 | 418 ft | 59 kts | 351° |
| 2026-05-03 22:16 | -37.66319 | 144.83678 | 427 ft | 23 kts | 351° |
| 2026-05-03 22:16 | -37.66214 | 144.83659 | 429 ft | 8 kts | 353° |
| 2026-05-03 22:17 | -37.66170 | 144.83676 | 430 ft | 5 kts | 59° |
| 2026-05-03 22:17 | -37.66163 | 144.83727 | 430 ft | 6 kts | 90° |
| 2026-05-03 22:17 | -37.66166 | 144.83792 | 430 ft | 8 kts | 94° |
| 2026-05-03 22:17 | -37.66170 | 144.83878 | 430 ft | 10 kts | 94° |
| 2026-05-03 22:18 | -37.66176 | 144.83968 | 429 ft | 10 kts | 94° |
| 2026-05-03 22:18 | -37.66202 | 144.84050 | 428 ft | 10 kts | 132° |
| 2026-05-03 22:18 | -37.66269 | 144.84094 | 426 ft | 11 kts | 166° |
| 2026-05-03 22:18 | -37.66354 | 144.84111 | 422 ft | 14 kts | 170° |
| 2026-05-03 22:19 | -37.66462 | 144.84132 | 411 ft | 15 kts | 172° |
| 2026-05-03 22:19 | -37.66567 | 144.84152 | 403 ft | 15 kts | 171° |
| 2026-05-03 22:19 | -37.66649 | 144.84168 | 399 ft | 7 kts | 171° |
| 2026-05-03 22:19 | -37.66691 | 144.84206 | 398 ft | 9 kts | 113° |
| 2026-05-03 22:20 | -37.66690 | 144.84300 | 394 ft | 11 kts | 80° |
| 2026-05-03 22:20 | -37.66681 | 144.84366 | 392 ft | 1 kts | 82° |
| 2026-05-03 22:20 | -37.66681 | 144.84367 | 392 ft | 0 kts | 82° |
| 2026-05-03 22:21 | -37.66679 | 144.84383 | 392 ft | 4 kts | 82° |
| 2026-05-03 22:21 | -37.66688 | 144.84430 | 392 ft | 5 kts | 134° |
| 2026-05-03 22:22 | -37.66714 | 144.84442 | 393 ft | 3 kts | 167° |
| 2026-05-03 22:22 | -37.66743 | 144.84448 | 394 ft | 4 kts | 170° |
| 2026-05-03 22:22 | -37.66765 | 144.84453 | 395 ft | 1 kts | 171° |
| 2026-05-03 22:22 | -37.66767 | 144.84453 | 395 ft | 0 kts | 171° |